Time;durP1;ratioP1;P1;durP2;ratioP2;P2;SDS_P1;SDS_P2;PMS_P1;PMS_P2;Temp;Humidity;BMP_temperature;BMP_pressure;BME280_temperature;BME280_humidity;BME280_pressure;Samples;Min_cycle;Max_cycle;Signal;HPM_P1;HPM_P2
2023/04/14 00:01:46;;;;;;;0.00;0.00;;;;;;;11.02;51.37;99482.75;7358620;19;20041;-59
2023/04/14 00:04:11;;;;;;;0.10;0.10;;;;;;;11.00;51.70;99480.22;7355326;19;20014;-59
2023/04/14 00:06:37;;;;;;;0.00;0.00;;;;;;;10.99;51.77;99486.31;7355586;19;20066;-59
2023/04/14 00:09:03;;;;;;;0.00;0.00;;;;;;;10.96;52.22;99483.03;7354664;19;20012;-59
2023/04/14 00:11:28;;;;;;;0.00;0.00;;;;;;;10.97;52.31;99489.94;7354277;19;20022;-59
2023/04/14 00:13:56;;;;;;;0.00;0.00;;;;;;;10.96;52.55;99489.09;7354912;19;20014;-59
2023/04/14 00:16:21;;;;;;;0.10;0.10;;;;;;;10.91;52.41;99485.84;7352101;19;20002;-59
2023/04/14 00:18:47;;;;;;;0.00;0.00;;;;;;;10.94;52.32;99492.66;7357358;19;20033;-59
2023/04/14 00:21:12;;;;;;;0.00;0.00;;;;;;;10.90;52.90;99494.59;7353424;19;20018;-59
2023/04/14 00:23:38;;;;;;;0.10;0.10;;;;;;;10.91;52.49;99488.44;7356105;19;20031;-59
2023/04/14 00:26:03;;;;;;;0.00;0.00;;;;;;;10.90;52.52;99484.97;7355402;19;20026;-60
2023/04/14 00:28:29;;;;;;;0.00;0.00;;;;;;;10.89;52.90;99493.72;7352281;19;20874;-59
2023/04/14 00:30:54;;;;;;;0.00;0.00;;;;;;;10.88;53.02;99492.03;7356707;19;20014;-59
2023/04/14 00:33:20;;;;;;;0.00;0.00;;;;;;;10.88;53.25;99497.25;7353403;19;20017;-59
2023/04/14 00:35:45;;;;;;;0.00;0.00;;;;;;;10.46;52.92;99432.06;7355802;19;20577;-59
2023/04/14 00:38:11;;;;;;;0.00;0.00;;;;;;;10.84;53.30;99489.59;7351947;19;20093;-59
2023/04/14 00:40:36;;;;;;;0.00;0.00;;;;;;;10.81;53.38;99490.59;7353849;19;20011;-60
2023/04/14 00:43:02;;;;;;;0.00;0.00;;;;;;;10.79;52.98;99483.72;7354938;19;20010;-60
2023/04/14 00:45:27;;;;;;;0.10;0.10;;;;;;;10.68;53.15;99473.75;7357307;19;20583;-59
2023/04/14 00:47:53;;;;;;;0.00;0.00;;;;;;;10.71;53.00;99478.00;7352579;19;20031;-59
2023/04/14 00:50:20;;;;;;;0.00;0.00;;;;;;;10.68;52.87;99488.56;7355110;19;20333;-59
2023/04/14 00:52:47;;;;;;;0.00;0.00;;;;;;;10.63;53.06;99486.16;7353191;19;20002;-59
2023/04/14 00:55:15;;;;;;;0.00;0.00;;;;;;;10.59;52.99;99489.78;7353518;19;20018;-59
2023/04/14 00:57:40;;;;;;;0.05;0.05;;;;;;;10.53;53.15;99485.69;7356681;19;20006;-59
2023/04/14 01:00:06;;;;;;;0.00;0.00;;;;;;;10.48;52.95;99487.63;7353371;19;20021;-59
2023/04/14 01:02:32;;;;;;;0.00;0.00;;;;;;;10.42;52.89;99480.06;7354585;19;20625;-59
2023/04/14 01:04:58;;;;;;;0.10;0.10;;;;;;;10.37;53.28;99475.03;7353182;19;20018;-59
2023/04/14 01:07:25;;;;;;;0.00;0.00;;;;;;;10.32;53.33;99482.22;7354713;19;20018;-59
2023/04/14 01:09:53;;;;;;;0.00;0.00;;;;;;;10.27;53.43;99478.09;7355971;19;20010;-59
2023/04/14 01:12:44;;;;;;;0.00;0.00;;;;;;;10.21;52.44;99483.53;7355683;19;20035;-59
2023/04/14 01:15:32;;;;;;;0.00;0.00;;;;;;;10.13;53.50;99479.47;7352945;19;20006;-59
2023/04/14 01:18:09;;;;;;;0.10;0.10;;;;;;;10.06;53.80;99475.41;7355232;19;20010;-58
2023/04/14 01:20:42;;;;;;;0.10;0.10;;;;;;;10.00;53.84;99477.44;7356099;19;20017;-59
2023/04/14 01:23:22;;;;;;;0.00;0.00;;;;;;;9.96;53.08;99473.22;7353834;19;20478;-59
2023/04/14 01:26:20;;;;;;;0.10;0.10;;;;;;;9.90;52.56;99474.34;7355397;19;20026;-60
2023/04/14 01:29:05;;;;;;;0.00;0.00;;;;;;;9.80;52.66;99459.97;7244812;19;2004460;-59
2023/04/14 01:31:42;;;;;;;0.10;0.10;;;;;;;9.76;53.25;99466.19;7355734;19;20007;-59
2023/04/14 01:34:28;;;;;;;0.00;0.00;;;;;;;9.70;53.45;99463.84;7353076;19;20038;-59
2023/04/14 01:37:00;;;;;;;0.08;0.08;;;;;;;9.64;53.91;99466.69;7356170;19;20576;-60
2023/04/14 01:39:32;;;;;;;0.00;0.00;;;;;;;9.53;54.18;99457.53;7354975;19;20125;-59
2023/04/14 01:41:58;;;;;;;0.00;0.00;;;;;;;9.47;54.36;99452.53;7351545;19;20035;-59
2023/04/14 01:44:26;;;;;;;0.00;0.00;;;;;;;9.47;54.94;99460.34;7350029;19;20467;-59
2023/04/14 01:46:59;;;;;;;0.00;0.00;;;;;;;9.44;54.60;99465.69;7355788;19;20078;-59
2023/04/14 01:49:27;;;;;;;0.00;0.00;;;;;;;9.39;54.97;99462.41;7358418;19;20010;-60
2023/04/14 01:51:54;;;;;;;0.10;0.10;;;;;;;9.26;55.00;99437.72;7361239;19;20003;-58
2023/04/14 01:54:22;;;;;;;0.10;0.10;;;;;;;9.33;55.05;99458.28;7360449;19;20010;-59
2023/04/14 01:56:50;;;;;;;0.00;0.00;;;;;;;9.30;55.12;99452.31;7358645;19;20506;-59
2023/04/14 01:59:17;;;;;;;0.10;0.10;;;;;;;9.27;55.38;99457.63;7345289;19;20078;-59
2023/04/14 02:01:45;;;;;;;0.00;0.00;;;;;;;9.09;55.37;99433.97;7358800;19;20011;-59
2023/04/14 02:04:12;;;;;;;0.00;0.00;;;;;;;9.22;55.21;99459.56;7352534;19;20018;-59
2023/04/14 02:06:38;;;;;;;0.10;0.10;;;;;;;9.19;55.16;99454.47;7356379;19;20121;-60
2023/04/14 02:09:09;;;;;;;0.00;0.00;;;;;;;9.16;55.39;99455.44;7357442;19;20462;-59
2023/04/14 02:11:36;;;;;;;0.08;0.08;;;;;;;9.14;55.59;99451.19;7358220;19;20010;-59
2023/04/14 02:14:03;;;;;;;0.05;0.05;;;;;;;9.10;55.95;99451.31;7356612;19;20518;-58
2023/04/14 02:16:29;;;;;;;0.00;0.00;;;;;;;9.08;55.75;99445.31;7359053;19;20862;-59
2023/04/14 02:18:56;;;;;;;0.10;0.10;;;;;;;9.02;55.67;99442.94;7355018;19;20021;-59
2023/04/14 02:21:24;;;;;;;0.00;0.00;;;;;;;9.03;55.81;99449.00;7356324;19;20546;-59
2023/04/14 02:23:50;;;;;;;0.00;0.00;;;;;;;8.99;55.81;99443.03;7355825;19;20006;-59
2023/04/14 02:26:20;;;;;;;0.00;0.00;;;;;;;8.97;56.10;99444.84;7353426;19;20018;-59
2023/04/14 02:28:59;;;;;;;0.00;0.00;;;;;;;8.95;55.71;99444.03;7357327;19;20042;-59
2023/04/14 02:31:28;;;;;;;0.10;0.10;;;;;;;8.91;56.04;99447.66;7352011;19;20728;-59
2023/04/14 02:33:56;;;;;;;0.10;0.10;;;;;;;8.83;56.06;99436.69;7356787;19;20062;-58
2023/04/14 02:36:28;;;;;;;;;;;;;;;8.88;54.43;99447.78;7357727;19;20126;-59
2023/04/14 02:39:16;;;;;;;0.00;0.00;;;;;;;8.73;55.13;99430.13;7357463;19;19918;-59
2023/04/14 02:41:44;;;;;;;0.00;0.00;;;;;;;8.79;56.04;99446.34;7352418;19;20016;-59
2023/04/14 02:44:17;;;;;;;0.00;0.00;;;;;;;8.77;56.43;99452.53;7351029;19;20121;-59
2023/04/14 02:46:50;;;;;;;0.10;0.10;;;;;;;8.74;56.08;99447.41;7354745;19;20010;-59
2023/04/14 02:49:18;;;;;;;0.10;0.10;;;;;;;8.71;56.82;99452.72;7355939;19;20014;-59
2023/04/14 02:51:45;;;;;;;0.10;0.10;;;;;;;8.69;56.63;99452.78;7354995;19;20011;-58
2023/04/14 02:54:12;;;;;;;0.00;0.00;;;;;;;8.66;56.68;99455.47;7359124;19;20027;-59
2023/04/14 02:56:39;;;;;;;0.08;0.08;;;;;;;8.64;56.50;99451.25;7353633;19;20022;-59
2023/04/14 02:59:05;;;;;;;0.00;0.00;;;;;;;8.61;56.54;99451.34;7353463;19;20035;-59
2023/04/14 03:01:31;;;;;;;0.10;0.10;;;;;;;8.61;57.04;99451.34;7355783;19;20474;-59
2023/04/14 03:03:58;;;;;;;0.10;0.10;;;;;;;8.45;56.72;99431.06;7335380;19;20043;-58
2023/04/14 03:06:25;;;;;;;0.10;0.10;;;;;;;8.56;57.04;99448.91;7356242;19;20580;-58
2023/04/14 03:08:52;;;;;;;0.00;0.00;;;;;;;8.51;56.70;99441.25;7358047;19;20076;-59
2023/04/14 03:11:20;;;;;;;0.00;0.00;;;;;;;8.52;56.59;99448.19;7358150;19;20016;-58
2023/04/14 03:13:47;;;;;;;0.10;0.10;;;;;;;8.47;56.83;99439.69;7359831;19;20111;-59
2023/04/14 03:16:13;;;;;;;0.10;0.10;;;;;;;8.31;57.15;99421.13;7354252;19;20030;-59
2023/04/14 03:18:39;;;;;;;0.10;0.10;;;;;;;8.41;56.78;99439.88;7357778;19;20014;-58
2023/04/14 03:21:05;;;;;;;0.10;0.10;;;;;;;8.42;57.16;99441.59;7335900;19;20074;-59
2023/04/14 03:23:32;;;;;;;0.10;0.10;;;;;;;8.38;57.17;99439.13;7356802;19;20613;-59
2023/04/14 03:26:00;;;;;;;0.10;0.10;;;;;;;8.38;57.06;99434.78;7349448;19;20017;-59
2023/04/14 03:28:29;;;;;;;0.10;0.10;;;;;;;8.37;57.14;99432.25;7359832;19;20030;-59
2023/04/14 03:30:56;;;;;;;0.10;0.10;;;;;;;8.35;56.85;99440.03;7358542;19;20022;-59
2023/04/14 03:33:27;;;;;;;0.10;0.10;;;;;;;8.32;56.67;99429.75;7355594;19;20018;-59
2023/04/14 03:35:55;;;;;;;0.05;0.05;;;;;;;8.30;56.73;99437.59;7356241;19;20047;-59
2023/04/14 03:38:25;;;;;;;0.00;0.00;;;;;;;8.30;56.98;99428.94;7358615;19;20022;-59
2023/04/14 03:40:52;;;;;;;0.10;0.10;;;;;;;8.27;56.78;99424.72;7356413;19;20027;-59
2023/04/14 03:43:21;;;;;;;0.10;0.10;;;;;;;8.23;56.83;99430.06;7358576;19;20014;-59
2023/04/14 03:45:48;;;;;;;0.00;0.00;;;;;;;8.19;57.10;99424.09;7353235;19;20010;-59
2023/04/14 03:48:17;;;;;;;0.10;0.10;;;;;;;8.22;57.11;99430.97;7357519;19;20027;-59
2023/04/14 03:50:45;;;;;;;0.00;0.00;;;;;;;8.18;56.75;99426.78;7356383;19;20018;-59
2023/04/14 03:53:13;;;;;;;0.10;0.10;;;;;;;8.16;57.04;99429.44;7357913;19;20050;-59
2023/04/14 03:55:42;;;;;;;0.00;0.00;;;;;;;8.15;57.16;99432.06;7357115;19;20415;-59
2023/04/14 03:58:10;;;;;;;0.10;0.10;;;;;;;8.12;56.68;99426.97;7356901;19;20030;-59
2023/04/14 04:00:37;;;;;;;;;;;;;;;8.10;55.25;99436.56;7358263;19;20065;-58
2023/04/14 04:03:04;;;;;;;0.08;0.08;;;;;;;8.05;56.87;99432.34;7355467;19;19911;-59
2023/04/14 04:05:30;;;;;;;0.08;0.08;;;;;;;8.01;56.73;99428.19;7358803;19;20018;-58
2023/04/14 04:08:01;;;;;;;0.00;0.00;;;;;;;7.98;56.52;99428.25;7354530;19;20081;-59
2023/04/14 04:10:32;;;;;;;0.10;0.10;;;;;;;7.95;56.84;99424.91;7357206;19;20007;-59
2023/04/14 04:13:01;;;;;;;0.00;0.00;;;;;;;7.90;56.87;99430.25;7355406;19;20351;-59
2023/04/14 04:15:28;;;;;;;0.10;0.10;;;;;;;7.86;57.06;99431.28;7353151;19;20514;-59
2023/04/14 04:17:56;;;;;;;0.03;0.03;;;;;;;7.72;57.33;99408.31;7355585;19;20438;-59
2023/04/14 04:20:23;;;;;;;0.10;0.10;;;;;;;7.66;56.85;99403.31;7356006;19;20031;-59
2023/04/14 04:22:50;;;;;;;0.00;0.00;;;;;;;7.74;57.25;99413.47;7358596;19;20018;-60
2023/04/14 04:25:16;;;;;;;0.00;0.00;;;;;;;7.76;57.44;99419.47;7355876;19;20806;-59
2023/04/14 04:27:42;;;;;;;0.10;0.10;;;;;;;7.72;57.24;99420.47;7356566;19;20006;-59
2023/04/14 04:30:09;;;;;;;0.00;0.00;;;;;;;7.58;57.61;99410.50;7353325;19;20796;-59
2023/04/14 04:32:36;;;;;;;0.00;0.00;;;;;;;7.57;57.41;99411.41;7357694;19;20006;-59
2023/04/14 04:35:06;;;;;;;0.00;0.00;;;;;;;7.56;57.37;99416.66;7354525;19;20022;-59
2023/04/14 04:37:32;;;;;;;0.00;0.00;;;;;;;7.63;57.76;99423.34;7356845;19;20025;-59
2023/04/14 04:39:58;;;;;;;0.00;0.00;;;;;;;7.60;57.67;99423.44;7355825;19;20467;-59
2023/04/14 04:42:23;;;;;;;0.00;0.00;;;;;;;7.57;57.98;99424.38;7356753;19;20031;-59
2023/04/14 04:44:49;;;;;;;0.10;0.10;;;;;;;7.53;57.76;99418.44;7354111;19;20439;-59
2023/04/14 04:47:15;;;;;;;0.00;0.00;;;;;;;7.46;57.56;99414.31;7353393;19;21377;-59
2023/04/14 04:49:40;;;;;;;0.00;0.00;;;;;;;7.50;57.80;99417.66;7352059;19;20736;-59
2023/04/14 04:52:06;;;;;;;0.10;0.10;;;;;;;7.49;58.01;99421.16;7355558;19;20018;-59
2023/04/14 04:54:31;;;;;;;0.00;0.00;;;;;;;7.46;57.79;99416.94;7354661;19;20672;-59
2023/04/14 04:56:57;;;;;;;0.00;0.00;;;;;;;7.43;57.81;99432.59;7352135;19;20077;-58
2023/04/14 04:59:23;;;;;;;0.00;0.00;;;;;;;7.41;58.13;99433.56;7354523;19;20014;-59
2023/04/14 05:01:49;;;;;;;0.10;0.10;;;;;;;7.39;58.38;99437.91;7354110;19;20035;-59
2023/04/14 05:04:14;;;;;;;0.00;0.00;;;;;;;7.37;58.10;99437.97;7356548;19;20006;-59
2023/04/14 05:06:39;;;;;;;0.00;0.00;;;;;;;7.35;58.09;99433.72;7356033;19;20010;-59
2023/04/14 05:09:05;;;;;;;0.00;0.00;;;;;;;7.35;58.35;99439.78;7350160;19;20007;-58
2023/04/14 05:11:32;;;;;;;0.00;0.00;;;;;;;7.35;58.35;99444.09;7356259;19;20013;-59
2023/04/14 05:13:57;;;;;;;0.00;0.00;;;;;;;7.29;58.16;99434.75;7351676;19;20015;-59
2023/04/14 05:16:23;;;;;;;0.00;0.00;;;;;;;7.28;58.57;99433.06;7357460;19;20038;-59
2023/04/14 05:18:48;;;;;;;0.00;0.00;;;;;;;7.28;58.11;99443.44;7353961;19;20053;-59
2023/04/14 05:21:14;;;;;;;0.00;0.00;;;;;;;7.26;58.72;99445.25;7355542;19;20014;-59
2023/04/14 05:23:42;;;;;;;0.00;0.00;;;;;;;7.20;58.66;99440.22;7363926;19;20043;-59
2023/04/14 05:26:08;;;;;;;0.00;0.00;;;;;;;7.19;58.51;99448.88;7369867;19;20040;-58
2023/04/14 05:28:34;;;;;;;0.00;0.00;;;;;;;7.03;58.74;99438.94;7367440;19;20017;-59
2023/04/14 05:31:00;;;;;;;0.00;0.00;;;;;;;7.08;58.90;99440.56;7370019;19;20914;-59
2023/04/14 05:33:25;;;;;;;0.00;0.00;;;;;;;7.00;59.03;99444.25;7366231;19;21014;-58
2023/04/14 05:35:51;;;;;;;0.00;0.00;;;;;;;7.06;59.13;99458.78;7368251;19;20014;-59
2023/04/14 05:38:18;;;;;;;0.05;0.05;;;;;;;7.03;58.70;99469.25;7368210;19;20007;-59
2023/04/14 05:40:44;;;;;;;0.00;0.00;;;;;;;7.00;58.84;99471.94;7370107;19;20574;-59
2023/04/14 05:43:10;;;;;;;0.00;0.00;;;;;;;6.96;58.79;99480.69;7368829;19;20014;-58
2023/04/14 05:45:35;;;;;;;0.00;0.00;;;;;;;6.87;59.05;99463.63;7365491;19;20035;-59
2023/04/14 05:48:01;;;;;;;0.00;0.00;;;;;;;6.91;58.86;99475.63;7367195;19;21066;-59
2023/04/14 05:50:26;;;;;;;0.00;0.00;;;;;;;6.88;59.21;99474.84;7367595;19;20537;-59
2023/04/14 05:52:52;;;;;;;0.00;0.00;;;;;;;6.84;59.13;99479.28;7368427;19;20015;-58
2023/04/14 05:55:18;;;;;;;0.10;0.10;;;;;;;6.82;59.17;99486.25;7367037;19;20023;-59
2023/04/14 05:57:44;;;;;;;0.00;0.00;;;;;;;6.79;59.14;99488.06;7356922;19;20014;-59
2023/04/14 06:00:11;;;;;;;0.10;0.10;;;;;;;6.65;59.15;99472.91;7362504;19;20462;-59
2023/04/14 06:02:36;;;;;;;0.08;0.08;;;;;;;6.71;59.52;99483.94;7365902;19;20076;-58
2023/04/14 06:05:05;;;;;;;0.00;0.00;;;;;;;6.71;59.51;99493.47;7365918;19;20846;-60
2023/04/14 06:07:30;;;;;;;0.00;0.00;;;;;;;6.71;59.27;99493.47;7361779;19;20010;-58
2023/04/14 06:09:56;;;;;;;0.10;0.10;;;;;;;6.68;59.69;99491.81;7365815;19;20274;-59
2023/04/14 06:12:21;;;;;;;0.00;0.00;;;;;;;6.67;59.28;99503.06;7356391;19;20015;-59
2023/04/14 06:14:46;;;;;;;0.10;0.10;;;;;;;6.65;59.48;99504.03;7364930;19;20661;-58
2023/04/14 06:17:12;;;;;;;0.10;0.10;;;;;;;6.53;59.65;99484.41;7366434;19;20010;-59
2023/04/14 06:19:38;;;;;;;0.10;0.10;;;;;;;6.59;59.81;99496.38;7363136;19;20007;-58
2023/04/14 06:22:04;;;;;;;0.00;0.00;;;;;;;6.57;59.24;99492.97;7364148;19;20240;-59
2023/04/14 06:24:31;;;;;;;0.00;0.00;;;;;;;6.65;59.76;99519.59;7362976;19;20011;-58
2023/04/14 06:26:57;;;;;;;0.00;0.00;;;;;;;6.69;59.96;99521.19;7362446;19;20006;-59
2023/04/14 06:29:22;;;;;;;0.05;0.05;;;;;;;6.26;59.79;99460.06;7364285;19;20416;-59
2023/04/14 06:31:50;;;;;;;0.10;0.10;;;;;;;6.71;59.98;99532.41;7360523;19;20006;-59
2023/04/14 06:34:15;;;;;;;0.00;0.00;;;;;;;6.74;59.88;99527.09;7361412;19;20542;-59
2023/04/14 06:36:41;;;;;;;0.00;0.00;;;;;;;6.76;59.76;99530.53;7354874;19;20016;-59
2023/04/14 06:39:06;;;;;;;0.00;0.00;;;;;;;6.74;60.18;99525.41;7356657;19;20506;-59
2023/04/14 06:41:32;;;;;;;0.00;0.00;;;;;;;6.84;60.18;99532.91;7356372;19;20016;-58
2023/04/14 06:43:57;;;;;;;0.00;0.00;;;;;;;6.89;60.34;99539.69;7353704;19;20376;-58
2023/04/14 06:46:22;;;;;;;0.10;0.10;;;;;;;6.95;60.33;99543.88;7355480;19;20006;-58
2023/04/14 06:48:48;;;;;;;0.10;0.10;;;;;;;6.99;60.00;99538.56;7356190;19;20003;-58
2023/04/14 06:51:13;;;;;;;0.00;0.00;;;;;;;7.05;60.11;99549.69;7356646;19;20007;-58
2023/04/14 06:53:39;;;;;;;0.00;0.00;;;;;;;7.10;60.18;99547.81;7357224;19;20445;-59
2023/04/14 06:56:06;;;;;;;0.10;0.10;;;;;;;7.16;60.14;99550.25;7356755;19;20011;-58
2023/04/14 06:58:31;;;;;;;0.00;0.00;;;;;;;7.14;60.27;99545.06;7355731;19;20006;-59
2023/04/14 07:01:01;;;;;;;0.00;0.00;;;;;;;7.26;59.87;99564.69;7354162;19;20010;-59
2023/04/14 07:03:29;;;;;;;0.10;0.10;;;;;;;7.29;60.12;99570.63;7349882;19;20632;-59
2023/04/14 07:06:01;;;;;;;0.05;0.05;;;;;;;7.36;59.48;99570.47;7355521;19;20011;-59
2023/04/14 07:08:30;;;;;;;0.00;0.00;;;;;;;7.36;59.82;99566.13;7354783;19;20486;-59
2023/04/14 07:10:59;;;;;;;0.10;0.10;;;;;;;7.42;59.93;99573.75;7356637;19;20023;-60
2023/04/14 07:13:25;;;;;;;0.00;0.00;;;;;;;7.26;59.46;99543.91;7352205;19;20858;-59
2023/04/14 07:15:51;;;;;;;0.10;0.10;;;;;;;7.47;59.85;99577.06;7356121;19;20010;-58
2023/04/14 07:18:16;;;;;;;0.00;0.00;;;;;;;7.49;59.83;99588.25;7355928;19;20013;-59
2023/04/14 07:20:42;;;;;;;0.10;0.10;;;;;;;7.52;59.80;99590.78;7355555;19;20006;-59
2023/04/14 07:23:07;;;;;;;0.10;0.10;;;;;;;7.57;59.77;99589.81;7349856;19;20011;-59
2023/04/14 07:25:35;;;;;;;0.10;0.10;;;;;;;7.49;59.90;99572.66;7355056;19;20011;-59
2023/04/14 07:28:01;;;;;;;0.10;0.10;;;;;;;7.67;59.70;99597.28;7355613;19;20018;-58
2023/04/14 07:30:27;;;;;;;0.00;0.00;;;;;;;7.74;60.09;99605.75;7356743;19;20014;-59
2023/04/14 07:32:52;;;;;;;0.00;0.00;;;;;;;7.82;60.23;99600.34;7355005;19;20029;-59
2023/04/14 07:35:17;;;;;;;0.10;0.10;;;;;;;7.89;60.03;99605.31;7354171;19;20057;-59
2023/04/14 07:37:43;;;;;;;0.00;0.00;;;;;;;7.98;59.73;99612.84;7355220;19;20014;-59
2023/04/14 07:40:09;;;;;;;0.10;0.10;;;;;;;8.05;59.90;99609.16;7352752;19;20074;-59
2023/04/14 07:42:35;;;;;;;0.10;0.10;;;;;;;8.15;60.04;99616.69;7357051;19;20002;-59
2023/04/14 07:45:02;;;;;;;0.00;0.00;;;;;;;8.24;60.18;99619.84;7354282;19;20014;-59
2023/04/14 07:47:27;;;;;;;0.00;0.00;;;;;;;8.33;59.92;99616.97;7345921;19;20018;-59
2023/04/14 07:49:53;;;;;;;0.10;0.10;;;;;;;8.42;60.04;99617.63;7351788;19;20010;-59
2023/04/14 07:52:18;;;;;;;0.00;0.00;;;;;;;8.49;60.14;99608.72;7351118;19;20042;-59
2023/04/14 07:54:44;;;;;;;0.10;0.10;;;;;;;8.23;59.77;99566.16;7354414;19;20010;-59
2023/04/14 07:57:10;;;;;;;0.00;0.00;;;;;;;8.66;59.77;99610.78;7352863;19;20022;-59
2023/04/14 07:59:37;;;;;;;0.00;0.00;;;;;;;8.76;59.86;99622.59;7354011;19;20006;-59
2023/04/14 08:02:03;;;;;;;0.00;0.00;;;;;;;8.82;59.82;99619.81;7342938;19;20019;-59
2023/04/14 08:04:28;;;;;;;0.00;0.00;;;;;;;8.90;59.61;99622.16;7346271;19;20010;-59
2023/04/14 08:06:53;;;;;;;0.00;0.00;;;;;;;8.96;59.39;99622.78;7357031;19;20017;-59
2023/04/14 08:09:19;;;;;;;0.05;0.05;;;;;;;9.03;59.41;99626.06;7336356;19;20014;-59
2023/04/14 08:11:45;;;;;;;0.00;0.00;;;;;;;9.09;59.51;99626.69;7353837;19;20442;-59
2023/04/14 08:14:10;;;;;;;0.00;0.00;;;;;;;9.15;59.36;99632.59;7356738;19;20735;-59
2023/04/14 08:16:36;;;;;;;0.10;0.10;;;;;;;9.21;59.41;99641.03;7357733;19;20685;-59
2023/04/14 08:19:02;;;;;;;0.00;0.00;;;;;;;9.22;59.48;99626.25;7352398;19;20025;-59
2023/04/14 08:21:28;;;;;;;0.00;0.00;;;;;;;9.31;59.35;99647.63;7351355;19;20129;-59
2023/04/14 08:23:53;;;;;;;0.10;0.10;;;;;;;9.27;58.70;99632.16;7353955;19;20014;-58
2023/04/14 08:26:20;;;;;;;0.00;0.00;;;;;;;9.41;58.97;99649.94;7355334;19;20018;-60
2023/04/14 08:28:45;;;;;;;0.00;0.00;;;;;;;9.46;58.60;99651.47;7347303;19;20436;-59
2023/04/14 08:31:11;;;;;;;0.10;0.10;;;;;;;9.52;58.58;99659.06;7351087;19;20092;-59
2023/04/14 08:33:36;;;;;;;0.03;0.03;;;;;;;9.56;58.39;99663.28;7356279;19;20019;-59
2023/04/14 08:36:02;;;;;;;0.10;0.10;;;;;;;9.61;58.30;99666.56;7355197;19;20027;-59
2023/04/14 08:38:28;;;;;;;0.08;0.08;;;;;;;9.67;58.15;99675.09;7353225;19;20018;-58
2023/04/14 08:40:55;;;;;;;0.10;0.10;;;;;;;9.74;58.49;99674.81;7355798;19;20039;-59
2023/04/14 08:43:22;;;;;;;0.00;0.00;;;;;;;9.84;58.16;99670.97;7353856;19;20014;-59
2023/04/14 08:45:50;;;;;;;0.00;0.00;;;;;;;9.96;57.87;99667.06;7356902;19;19998;-58
2023/04/14 08:48:19;;;;;;;0.00;0.00;;;;;;;10.11;57.62;99671.72;7355943;19;20020;-59
2023/04/14 08:51:09;;;;;;;0.10;0.10;;;;;;;10.34;57.58;99672.63;7357392;19;20463;-59
2023/04/14 08:53:42;;;;;;;0.00;0.00;;;;;;;10.57;57.64;99685.66;7253065;19;2004344;-59
2023/04/14 08:56:10;;;;;;;0.00;0.00;;;;;;;10.78;57.41;99683.97;7353518;19;20021;-60
2023/04/14 08:58:35;;;;;;;0.00;0.00;;;;;;;11.06;57.16;99695.91;7349872;19;20115;-60
2023/04/14 09:01:02;;;;;;;0.00;0.00;;;;;;;11.35;57.20;99697.31;7352460;19;20847;-59
2023/04/14 09:03:28;;;;;;;0.08;0.08;;;;;;;11.57;56.74;99692.88;7354578;19;20010;-59
2023/04/14 09:05:53;;;;;;;0.00;0.00;;;;;;;11.89;56.58;99706.38;7355834;19;20334;-59
2023/04/14 09:08:19;;;;;;;0.00;0.00;;;;;;;12.13;56.28;99707.91;7354892;19;20017;-59
2023/04/14 09:10:45;;;;;;;0.10;0.10;;;;;;;12.40;55.91;99712.78;7355247;19;20014;-59
2023/04/14 09:13:11;;;;;;;0.00;0.00;;;;;;;12.58;56.14;99693.63;7353733;19;20037;-59
2023/04/14 09:15:37;;;;;;;0.03;0.03;;;;;;;12.99;55.83;99717.00;7355478;19;20733;-60
2023/04/14 09:18:03;;;;;;;0.03;0.03;;;;;;;13.33;55.22;99717.97;7354451;19;20638;-59
2023/04/14 09:20:29;;;;;;;0.10;0.10;;;;;;;13.61;54.79;99720.91;7352460;19;20017;-59
2023/04/14 09:22:55;;;;;;;0.10;0.10;;;;;;;13.94;54.37;99723.59;7356995;19;20022;-60
2023/04/14 09:25:21;;;;;;;0.03;0.03;;;;;;;14.17;52.69;99709.25;7354554;19;20011;-59
2023/04/14 09:27:48;;;;;;;0.00;0.00;;;;;;;14.59;51.86;99720.16;7352876;19;20107;-60
2023/04/14 09:30:16;;;;;;;0.10;0.10;;;;;;;14.87;51.26;99730.00;7352072;19;20801;-60
2023/04/14 09:32:43;;;;;;;0.10;0.10;;;;;;;15.19;51.05;99731.66;7354845;19;20014;-59
2023/04/14 09:35:12;;;;;;;0.00;0.00;;;;;;;15.49;49.94;99729.03;7353824;19;20007;-59
2023/04/14 09:37:45;;;;;;;0.10;0.10;;;;;;;15.88;51.36;99729.44;7353013;19;20006;-60
2023/04/14 09:40:26;;;;;;;0.05;0.05;;;;;;;16.14;52.05;99718.16;7350737;19;20014;-60
2023/04/14 09:42:53;;;;;;;0.10;0.10;;;;;;;16.43;47.77;99740.09;7350250;19;20015;-59
2023/04/14 09:45:18;;;;;;;0.10;0.10;;;;;;;16.73;46.58;99741.78;7350862;19;20030;-60
2023/04/14 09:47:44;;;;;;;0.05;0.05;;;;;;;17.03;45.81;99731.03;7351775;19;20021;-60
2023/04/14 09:50:09;;;;;;;0.10;0.10;;;;;;;17.31;44.89;99725.66;7347683;19;25627;-60
2023/04/14 09:52:46;;;;;;;0.10;0.10;;;;;;;17.70;47.24;99739.78;7355177;19;20014;-61
2023/04/14 09:55:13;;;;;;;0.10;0.10;;;;;;;17.88;43.31;99725.34;7350397;19;20475;-60
2023/04/14 09:57:43;;;;;;;0.10;0.10;;;;;;;18.21;44.10;99741.63;7353428;19;20046;-61
2023/04/14 10:00:14;;;;;;;0.10;0.10;;;;;;;18.47;44.13;99731.88;7350864;19;20066;-60
2023/04/14 10:02:57;;;;;;;0.10;0.10;;;;;;;18.74;45.81;99735.22;7354303;19;20664;-60
2023/04/14 10:05:27;;;;;;;0.10;0.10;;;;;;;18.94;42.52;99728.47;7350329;19;20012;-60
2023/04/14 10:07:53;;;;;;;0.10;0.10;;;;;;;19.10;42.84;99725.56;7348920;19;20443;-61
2023/04/14 10:10:18;;;;;;;0.10;0.10;;;;;;;19.43;42.29;99723.06;7357896;19;20014;-60
2023/04/14 10:12:45;;;;;;;0.10;0.10;;;;;;;19.68;42.26;99734.50;7353866;19;20022;-60
2023/04/14 10:15:11;;;;;;;0.10;0.10;;;;;;;19.94;42.92;99738.63;7353477;19;20010;-60
2023/04/14 10:17:41;;;;;;;0.10;0.10;;;;;;;20.33;41.55;99744.47;7356427;19;20018;-60
2023/04/14 10:20:07;;;;;;;0.10;0.10;;;;;;;20.56;38.93;99749.78;7355173;19;20018;-60
2023/04/14 10:22:33;;;;;;;0.10;0.10;;;;;;;20.81;37.60;99749.50;7351967;19;20455;-60
2023/04/14 10:24:59;;;;;;;0.10;0.10;;;;;;;21.01;37.90;99755.88;7350665;19;20010;-60
2023/04/14 10:27:27;;;;;;;0.10;0.10;;;;;;;21.17;37.46;99752.81;7356397;19;20014;-60
2023/04/14 10:29:53;;;;;;;0.10;0.10;;;;;;;21.17;38.08;99745.66;7352434;19;20014;-60
2023/04/14 10:32:20;;;;;;;0.10;0.10;;;;;;;21.31;39.43;99752.53;7356195;19;20098;-60
2023/04/14 10:35:16;;;;;;;0.10;0.10;;;;;;;21.67;42.19;99753.94;7348495;19;20035;-60
2023/04/14 10:37:50;;;;;;;0.10;0.10;;;;;;;21.91;39.90;99761.69;7250966;19;2004600;-60
2023/04/14 10:40:16;;;;;;;0.10;0.10;;;;;;;22.10;39.23;99765.41;7355573;19;20332;-60
2023/04/14 10:42:55;;;;;;;0.10;0.10;;;;;;;22.60;41.50;99768.19;7359654;19;20043;-60
2023/04/14 10:45:21;;;;;;;0.10;0.10;;;;;;;22.80;35.69;99769.94;7353456;19;20473;-60
2023/04/14 10:47:47;;;;;;;0.10;0.10;;;;;;;23.12;35.45;99776.94;7356047;19;22391;-59
2023/04/14 10:50:19;;;;;;;0.10;0.10;;;;;;;23.47;36.92;99771.94;7355717;19;20384;-60
2023/04/14 10:52:54;;;;;;;0.10;0.10;;;;;;;23.62;35.79;99779.47;7359635;19;20006;-60
2023/04/14 10:55:22;;;;;;;0.10;0.10;;;;;;;23.45;33.87;99771.19;7356429;19;20011;-60
2023/04/14 10:57:47;;;;;;;0.10;0.10;;;;;;;23.52;34.51;99783.00;7360475;19;20021;-61
2023/04/14 11:00:26;;;;;;;0.10;0.10;;;;;;;23.67;34.52;99785.25;7354426;19;20674;-60
2023/04/14 11:03:04;;;;;;;0.20;0.20;;;;;;;23.62;35.44;99787.47;7359131;19;20014;-60
2023/04/14 11:05:34;;;;;;;0.00;0.00;;;;;;;23.60;34.98;99794.78;7356886;19;20525;-60
2023/04/14 11:08:00;;;;;;;0.00;0.00;;;;;;;23.47;32.89;99774.59;7356631;19;20035;-60
2023/04/14 11:10:29;;;;;;;0.10;0.10;;;;;;;23.77;32.94;99802.97;7355718;19;20033;-60
2023/04/14 11:13:11;;;;;;;0.10;0.10;;;;;;;24.08;36.15;99806.28;7354227;19;20035;-60
2023/04/14 11:15:50;;;;;;;0.10;0.10;;;;;;;24.20;35.59;99808.78;7356802;19;20059;-60
2023/04/14 11:18:28;;;;;;;0.10;0.10;;;;;;;24.17;32.49;99811.72;7352090;19;20891;-60
2023/04/14 11:21:05;;;;;;;0.10;0.10;;;;;;;24.21;31.26;99805.13;7356623;19;20025;-60
2023/04/14 11:23:32;;;;;;;0.10;0.10;;;;;;;24.48;32.75;99815.91;7354298;19;20019;-60
2023/04/14 11:25:58;;;;;;;0.10;0.10;;;;;;;24.71;32.21;99813.69;7354676;19;20034;-61
2023/04/14 11:28:31;;;;;;;0.10;0.10;;;;;;;25.09;34.32;99822.53;7357555;19;20835;-60
2023/04/14 11:30:58;;;;;;;0.10;0.10;;;;;;;25.23;29.39;99826.53;7358284;19;20015;-60
2023/04/14 11:33:35;;;;;;;0.10;0.10;;;;;;;25.31;32.37;99805.25;7355595;19;20030;-60
2023/04/14 11:36:02;;;;;;;0.10;0.10;;;;;;;25.41;31.57;99832.75;7357752;19;20010;-60
2023/04/14 11:38:28;;;;;;;0.10;0.10;;;;;;;25.45;30.03;99827.94;7358403;19;20026;-60
2023/04/14 11:40:55;;;;;;;0.10;0.10;;;;;;;25.68;32.39;99834.50;7356751;19;20103;-59
2023/04/14 11:43:20;;;;;;;;;;;;;;;26.04;36.67;99840.69;7348089;19;20372;-59